sensor_id;sensor_type;location;lat;lon;timestamp;P1;durP1;ratioP1;P2;durP2;ratioP2
21458;SDS011;10891;49.350;19.386;2022-08-18T00:01:37;26.13;;;20.80;;
21458;SDS011;10891;49.350;19.386;2022-08-18T00:04:07;28.65;;;23.08;;
21458;SDS011;10891;49.350;19.386;2022-08-18T00:06:34;31.75;;;24.15;;
21458;SDS011;10891;49.350;19.386;2022-08-18T00:09:03;29.60;;;22.25;;
21458;SDS011;10891;49.350;19.386;2022-08-18T00:11:31;29.90;;;20.98;;
21458;SDS011;10891;49.350;19.386;2022-08-18T00:13:59;29.25;;;22.23;;
21458;SDS011;10891;49.350;19.386;2022-08-18T00:16:26;28.20;;;22.92;;
21458;SDS011;10891;49.350;19.386;2022-08-18T00:18:53;31.88;;;24.25;;
21458;SDS011;10891;49.350;19.386;2022-08-18T00:21:22;31.90;;;24.98;;
21458;SDS011;10891;49.350;19.386;2022-08-18T00:23:49;35.35;;;24.85;;
21458;SDS011;10891;49.350;19.386;2022-08-18T00:26:16;30.23;;;23.05;;
21458;SDS011;10891;49.350;19.386;2022-08-18T00:28:43;27.33;;;21.98;;
21458;SDS011;10891;49.350;19.386;2022-08-18T00:31:10;28.02;;;21.70;;
21458;SDS011;10891;49.350;19.386;2022-08-18T00:33:37;29.45;;;23.20;;
21458;SDS011;10891;49.350;19.386;2022-08-18T00:36:04;33.17;;;23.48;;
21458;SDS011;10891;49.350;19.386;2022-08-18T00:38:33;32.63;;;23.05;;
21458;SDS011;10891;49.350;19.386;2022-08-18T00:41:00;31.70;;;23.75;;
21458;SDS011;10891;49.350;19.386;2022-08-18T00:43:29;31.75;;;22.63;;
21458;SDS011;10891;49.350;19.386;2022-08-18T00:45:57;31.05;;;22.20;;
21458;SDS011;10891;49.350;19.386;2022-08-18T00:48:24;32.10;;;23.27;;
21458;SDS011;10891;49.350;19.386;2022-08-18T00:50:52;28.35;;;23.55;;
21458;SDS011;10891;49.350;19.386;2022-08-18T00:53:22;31.17;;;23.65;;
21458;SDS011;10891;49.350;19.386;2022-08-18T00:55:53;31.83;;;24.65;;
21458;SDS011;10891;49.350;19.386;2022-08-18T00:58:21;35.00;;;26.55;;
21458;SDS011;10891;49.350;19.386;2022-08-18T01:00:51;32.72;;;24.65;;
21458;SDS011;10891;49.350;19.386;2022-08-18T01:03:21;37.00;;;25.63;;
21458;SDS011;10891;49.350;19.386;2022-08-18T01:05:51;33.58;;;25.63;;
21458;SDS011;10891;49.350;19.386;2022-08-18T01:08:21;31.05;;;24.92;;
21458;SDS011;10891;49.350;19.386;2022-08-18T01:10:48;34.85;;;25.80;;
21458;SDS011;10891;49.350;19.386;2022-08-18T01:13:17;31.80;;;25.45;;
21458;SDS011;10891;49.350;19.386;2022-08-18T01:15:44;32.05;;;23.52;;
21458;SDS011;10891;49.350;19.386;2022-08-18T01:18:12;33.30;;;23.90;;
21458;SDS011;10891;49.350;19.386;2022-08-18T01:20:58;36.40;;;25.55;;
21458;SDS011;10891;49.350;19.386;2022-08-18T01:23:48;33.10;;;24.27;;
21458;SDS011;10891;49.350;19.386;2022-08-18T01:26:16;33.38;;;24.58;;
21458;SDS011;10891;49.350;19.386;2022-08-18T01:28:44;31.75;;;24.48;;
21458;SDS011;10891;49.350;19.386;2022-08-18T01:31:12;30.42;;;24.52;;
21458;SDS011;10891;49.350;19.386;2022-08-18T01:33:39;34.38;;;24.08;;
21458;SDS011;10891;49.350;19.386;2022-08-18T01:36:09;30.52;;;24.15;;
21458;SDS011;10891;49.350;19.386;2022-08-18T01:38:38;31.60;;;25.20;;
21458;SDS011;10891;49.350;19.386;2022-08-18T01:41:07;38.75;;;25.88;;
21458;SDS011;10891;49.350;19.386;2022-08-18T01:43:34;35.15;;;25.67;;
21458;SDS011;10891;49.350;19.386;2022-08-18T01:46:02;34.90;;;26.58;;
21458;SDS011;10891;49.350;19.386;2022-08-18T01:48:29;36.83;;;27.13;;
21458;SDS011;10891;49.350;19.386;2022-08-18T01:50:58;35.42;;;25.77;;
21458;SDS011;10891;49.350;19.386;2022-08-18T01:53:25;35.20;;;25.92;;
21458;SDS011;10891;49.350;19.386;2022-08-18T01:55:53;34.63;;;26.02;;
21458;SDS011;10891;49.350;19.386;2022-08-18T01:58:22;32.75;;;24.88;;
21458;SDS011;10891;49.350;19.386;2022-08-18T02:00:52;34.10;;;24.73;;
21458;SDS011;10891;49.350;19.386;2022-08-18T02:03:20;35.22;;;26.17;;
21458;SDS011;10891;49.350;19.386;2022-08-18T02:05:51;33.25;;;25.40;;
21458;SDS011;10891;49.350;19.386;2022-08-18T02:08:21;34.88;;;26.48;;
21458;SDS011;10891;49.350;19.386;2022-08-18T02:10:48;37.72;;;27.83;;
21458;SDS011;10891;49.350;19.386;2022-08-18T02:13:15;36.80;;;25.40;;
21458;SDS011;10891;49.350;19.386;2022-08-18T02:15:43;33.65;;;24.70;;
21458;SDS011;10891;49.350;19.386;2022-08-18T02:18:12;32.83;;;25.55;;
21458;SDS011;10891;49.350;19.386;2022-08-18T02:20:39;36.63;;;24.83;;
21458;SDS011;10891;49.350;19.386;2022-08-18T02:23:07;33.15;;;25.77;;
21458;SDS011;10891;49.350;19.386;2022-08-18T02:25:34;32.38;;;25.70;;
21458;SDS011;10891;49.350;19.386;2022-08-18T02:28:01;33.13;;;25.35;;
21458;SDS011;10891;49.350;19.386;2022-08-18T02:30:29;35.17;;;26.58;;
21458;SDS011;10891;49.350;19.386;2022-08-18T02:32:57;37.17;;;26.17;;
21458;SDS011;10891;49.350;19.386;2022-08-18T02:35:25;37.22;;;27.20;;
21458;SDS011;10891;49.350;19.386;2022-08-18T02:37:53;37.83;;;27.42;;
21458;SDS011;10891;49.350;19.386;2022-08-18T02:40:20;36.03;;;26.63;;
21458;SDS011;10891;49.350;19.386;2022-08-18T02:42:47;36.75;;;26.58;;
21458;SDS011;10891;49.350;19.386;2022-08-18T02:45:16;37.22;;;28.02;;
21458;SDS011;10891;49.350;19.386;2022-08-18T02:47:44;35.88;;;28.10;;
21458;SDS011;10891;49.350;19.386;2022-08-18T02:50:12;39.88;;;28.05;;
21458;SDS011;10891;49.350;19.386;2022-08-18T02:52:40;35.60;;;27.10;;
21458;SDS011;10891;49.350;19.386;2022-08-18T02:55:08;31.95;;;26.52;;
21458;SDS011;10891;49.350;19.386;2022-08-18T02:57:37;40.78;;;27.77;;
21458;SDS011;10891;49.350;19.386;2022-08-18T03:00:07;41.47;;;28.25;;
21458;SDS011;10891;49.350;19.386;2022-08-18T03:02:36;39.17;;;27.30;;
21458;SDS011;10891;49.350;19.386;2022-08-18T03:05:04;41.53;;;26.70;;
21458;SDS011;10891;49.350;19.386;2022-08-18T03:07:32;39.10;;;28.17;;
21458;SDS011;10891;49.350;19.386;2022-08-18T03:10:00;43.47;;;28.90;;
21458;SDS011;10891;49.350;19.386;2022-08-18T03:12:27;36.78;;;27.52;;
21458;SDS011;10891;49.350;19.386;2022-08-18T03:14:54;37.90;;;27.67;;
21458;SDS011;10891;49.350;19.386;2022-08-18T03:17:21;39.30;;;26.83;;
21458;SDS011;10891;49.350;19.386;2022-08-18T03:19:48;39.35;;;26.75;;
21458;SDS011;10891;49.350;19.386;2022-08-18T03:22:15;37.30;;;26.08;;
21458;SDS011;10891;49.350;19.386;2022-08-18T03:24:44;35.72;;;27.35;;
21458;SDS011;10891;49.350;19.386;2022-08-18T03:27:11;40.53;;;28.83;;
21458;SDS011;10891;49.350;19.386;2022-08-18T03:29:38;37.47;;;28.15;;
21458;SDS011;10891;49.350;19.386;2022-08-18T03:32:06;38.67;;;27.90;;
21458;SDS011;10891;49.350;19.386;2022-08-18T03:34:33;34.85;;;26.13;;
21458;SDS011;10891;49.350;19.386;2022-08-18T03:37:01;39.60;;;27.80;;
21458;SDS011;10891;49.350;19.386;2022-08-18T03:39:28;41.05;;;30.30;;
21458;SDS011;10891;49.350;19.386;2022-08-18T03:41:56;44.58;;;31.13;;
21458;SDS011;10891;49.350;19.386;2022-08-18T03:44:24;37.97;;;28.35;;
21458;SDS011;10891;49.350;19.386;2022-08-18T03:46:52;42.03;;;29.35;;
21458;SDS011;10891;49.350;19.386;2022-08-18T03:49:19;41.22;;;28.88;;
21458;SDS011;10891;49.350;19.386;2022-08-18T03:51:46;36.25;;;28.33;;
21458;SDS011;10891;49.350;19.386;2022-08-18T03:54:16;36.60;;;26.58;;
21458;SDS011;10891;49.350;19.386;2022-08-18T03:56:44;42.00;;;25.88;;
21458;SDS011;10891;49.350;19.386;2022-08-18T03:59:14;42.47;;;27.38;;
21458;SDS011;10891;49.350;19.386;2022-08-18T04:01:42;50.35;;;28.20;;
21458;SDS011;10891;49.350;19.386;2022-08-18T04:04:11;39.17;;;26.80;;
21458;SDS011;10891;49.350;19.386;2022-08-18T04:06:40;55.58;;;31.23;;
21458;SDS011;10891;49.350;19.386;2022-08-18T04:09:09;42.75;;;27.23;;
21458;SDS011;10891;49.350;19.386;2022-08-18T04:11:37;47.70;;;28.13;;
21458;SDS011;10891;49.350;19.386;2022-08-18T04:14:07;44.47;;;28.05;;
21458;SDS011;10891;49.350;19.386;2022-08-18T04:16:37;100.90;;;28.75;;
21458;SDS011;10891;49.350;19.386;2022-08-18T04:19:04;58.92;;;29.38;;
21458;SDS011;10891;49.350;19.386;2022-08-18T04:21:33;91.57;;;30.23;;
21458;SDS011;10891;49.350;19.386;2022-08-18T04:24:01;94.97;;;29.52;;
21458;SDS011;10891;49.350;19.386;2022-08-18T04:26:29;80.68;;;32.03;;
21458;SDS011;10891;49.350;19.386;2022-08-18T04:28:57;104.90;;;32.50;;
21458;SDS011;10891;49.350;19.386;2022-08-18T04:31:26;97.30;;;31.02;;
21458;SDS011;10891;49.350;19.386;2022-08-18T04:33:55;64.10;;;31.75;;
21458;SDS011;10891;49.350;19.386;2022-08-18T04:36:22;71.22;;;30.98;;
21458;SDS011;10891;49.350;19.386;2022-08-18T04:38:50;61.63;;;33.40;;
21458;SDS011;10891;49.350;19.386;2022-08-18T04:41:17;52.42;;;31.45;;
21458;SDS011;10891;49.350;19.386;2022-08-18T04:43:51;47.78;;;31.42;;
21458;SDS011;10891;49.350;19.386;2022-08-18T04:46:19;46.63;;;29.20;;
21458;SDS011;10891;49.350;19.386;2022-08-18T04:48:46;41.60;;;28.05;;
21458;SDS011;10891;49.350;19.386;2022-08-18T04:51:17;40.30;;;25.45;;
21458;SDS011;10891;49.350;19.386;2022-08-18T04:53:45;47.35;;;26.25;;
21458;SDS011;10891;49.350;19.386;2022-08-18T04:56:16;39.53;;;23.92;;
21458;SDS011;10891;49.350;19.386;2022-08-18T04:58:47;35.03;;;22.27;;
21458;SDS011;10891;49.350;19.386;2022-08-18T05:01:16;28.85;;;21.30;;
21458;SDS011;10891;49.350;19.386;2022-08-18T05:03:44;27.98;;;19.88;;
21458;SDS011;10891;49.350;19.386;2022-08-18T05:06:11;30.92;;;20.48;;
21458;SDS011;10891;49.350;19.386;2022-08-18T05:08:40;29.42;;;20.15;;
21458;SDS011;10891;49.350;19.386;2022-08-18T05:11:07;29.83;;;19.52;;
21458;SDS011;10891;49.350;19.386;2022-08-18T05:13:34;27.38;;;18.40;;
21458;SDS011;10891;49.350;19.386;2022-08-18T05:16:02;26.75;;;17.88;;
21458;SDS011;10891;49.350;19.386;2022-08-18T05:18:29;22.48;;;17.08;;
21458;SDS011;10891;49.350;19.386;2022-08-18T05:20:56;17.70;;;14.43;;
21458;SDS011;10891;49.350;19.386;2022-08-18T05:23:25;21.10;;;15.82;;
21458;SDS011;10891;49.350;19.386;2022-08-18T05:25:57;22.88;;;15.30;;
21458;SDS011;10891;49.350;19.386;2022-08-18T05:28:24;19.33;;;14.13;;
21458;SDS011;10891;49.350;19.386;2022-08-18T05:30:52;20.38;;;14.27;;
21458;SDS011;10891;49.350;19.386;2022-08-18T05:33:19;18.55;;;14.00;;
21458;SDS011;10891;49.350;19.386;2022-08-18T05:35:47;16.80;;;14.25;;
21458;SDS011;10891;49.350;19.386;2022-08-18T05:38:18;20.73;;;14.13;;
21458;SDS011;10891;49.350;19.386;2022-08-18T05:41:02;20.20;;;14.75;;
21458;SDS011;10891;49.350;19.386;2022-08-18T05:43:31;20.98;;;15.13;;
21458;SDS011;10891;49.350;19.386;2022-08-18T05:45:58;17.80;;;14.73;;
21458;SDS011;10891;49.350;19.386;2022-08-18T05:48:26;18.00;;;14.77;;
21458;SDS011;10891;49.350;19.386;2022-08-18T05:50:56;25.10;;;15.48;;
21458;SDS011;10891;49.350;19.386;2022-08-18T05:53:26;26.63;;;15.48;;
21458;SDS011;10891;49.350;19.386;2022-08-18T05:56:08;21.60;;;16.70;;
21458;SDS011;10891;49.350;19.386;2022-08-18T05:59:07;21.67;;;16.77;;
21458;SDS011;10891;49.350;19.386;2022-08-18T06:01:37;18.10;;;16.20;;
21458;SDS011;10891;49.350;19.386;2022-08-18T06:04:06;19.65;;;16.85;;
21458;SDS011;10891;49.350;19.386;2022-08-18T06:06:35;19.08;;;16.50;;
21458;SDS011;10891;49.350;19.386;2022-08-18T06:09:04;21.73;;;16.55;;
21458;SDS011;10891;49.350;19.386;2022-08-18T06:11:36;23.50;;;17.45;;
21458;SDS011;10891;49.350;19.386;2022-08-18T06:14:03;21.27;;;16.50;;
21458;SDS011;10891;49.350;19.386;2022-08-18T06:16:36;18.80;;;16.60;;
21458;SDS011;10891;49.350;19.386;2022-08-18T06:19:07;21.02;;;16.98;;
21458;SDS011;10891;49.350;19.386;2022-08-18T06:21:43;19.70;;;16.05;;
21458;SDS011;10891;49.350;19.386;2022-08-18T06:24:15;20.05;;;16.65;;
21458;SDS011;10891;49.350;19.386;2022-08-18T06:26:46;19.70;;;15.75;;
21458;SDS011;10891;49.350;19.386;2022-08-18T06:29:20;22.42;;;16.13;;
21458;SDS011;10891;49.350;19.386;2022-08-18T06:31:55;22.65;;;15.60;;
21458;SDS011;10891;49.350;19.386;2022-08-18T06:34:29;21.38;;;15.55;;
21458;SDS011;10891;49.350;19.386;2022-08-18T06:37:08;18.67;;;16.33;;
21458;SDS011;10891;49.350;19.386;2022-08-18T06:39:38;24.25;;;16.33;;
21458;SDS011;10891;49.350;19.386;2022-08-18T06:42:08;22.17;;;17.77;;
21458;SDS011;10891;49.350;19.386;2022-08-18T06:44:36;22.38;;;17.35;;
21458;SDS011;10891;49.350;19.386;2022-08-18T06:47:08;21.90;;;17.17;;
21458;SDS011;10891;49.350;19.386;2022-08-18T06:49:38;23.25;;;17.40;;
21458;SDS011;10891;49.350;19.386;2022-08-18T06:52:23;22.50;;;16.52;;
21458;SDS011;10891;49.350;19.386;2022-08-18T06:54:51;21.60;;;16.95;;
21458;SDS011;10891;49.350;19.386;2022-08-18T06:57:23;21.50;;;16.05;;
21458;SDS011;10891;49.350;19.386;2022-08-18T06:59:55;22.08;;;15.95;;
21458;SDS011;10891;49.350;19.386;2022-08-18T07:02:25;20.65;;;15.45;;
21458;SDS011;10891;49.350;19.386;2022-08-18T07:04:58;22.27;;;16.08;;
21458;SDS011;10891;49.350;19.386;2022-08-18T07:07:30;19.92;;;16.13;;
21458;SDS011;10891;49.350;19.386;2022-08-18T07:09:57;20.00;;;17.33;;
21458;SDS011;10891;49.350;19.386;2022-08-18T07:12:26;23.30;;;16.90;;
21458;SDS011;10891;49.350;19.386;2022-08-18T07:14:54;24.58;;;16.50;;
21458;SDS011;10891;49.350;19.386;2022-08-18T07:17:23;25.70;;;16.95;;
21458;SDS011;10891;49.350;19.386;2022-08-18T07:19:56;31.70;;;16.50;;
21458;SDS011;10891;49.350;19.386;2022-08-18T07:22:27;21.10;;;16.73;;
21458;SDS011;10891;49.350;19.386;2022-08-18T07:24:55;23.92;;;16.40;;
21458;SDS011;10891;49.350;19.386;2022-08-18T07:27:38;22.10;;;16.05;;
21458;SDS011;10891;49.350;19.386;2022-08-18T07:30:07;27.95;;;16.50;;
21458;SDS011;10891;49.350;19.386;2022-08-18T07:32:36;24.83;;;17.17;;
21458;SDS011;10891;49.350;19.386;2022-08-18T07:35:07;23.05;;;17.38;;
21458;SDS011;10891;49.350;19.386;2022-08-18T07:37:36;19.00;;;16.67;;
21458;SDS011;10891;49.350;19.386;2022-08-18T07:40:09;21.63;;;17.60;;
21458;SDS011;10891;49.350;19.386;2022-08-18T07:42:40;27.13;;;17.80;;
21458;SDS011;10891;49.350;19.386;2022-08-18T07:45:11;27.02;;;18.88;;
21458;SDS011;10891;49.350;19.386;2022-08-18T07:47:41;22.73;;;18.42;;
21458;SDS011;10891;49.350;19.386;2022-08-18T07:50:13;22.58;;;17.63;;
21458;SDS011;10891;49.350;19.386;2022-08-18T07:52:42;25.00;;;18.08;;
21458;SDS011;10891;49.350;19.386;2022-08-18T07:55:17;26.05;;;16.30;;
21458;SDS011;10891;49.350;19.386;2022-08-18T07:57:50;21.88;;;17.33;;
21458;SDS011;10891;49.350;19.386;2022-08-18T08:00:22;21.58;;;16.75;;
21458;SDS011;10891;49.350;19.386;2022-08-18T08:02:58;22.48;;;17.45;;
21458;SDS011;10891;49.350;19.386;2022-08-18T08:05:41;23.48;;;15.95;;
21458;SDS011;10891;49.350;19.386;2022-08-18T08:08:16;20.60;;;15.90;;
21458;SDS011;10891;49.350;19.386;2022-08-18T08:10:47;20.27;;;17.00;;
21458;SDS011;10891;49.350;19.386;2022-08-18T08:13:18;20.77;;;16.20;;
21458;SDS011;10891;49.350;19.386;2022-08-18T08:15:51;24.20;;;15.93;;
21458;SDS011;10891;49.350;19.386;2022-08-18T08:18:23;19.33;;;15.70;;
21458;SDS011;10891;49.350;19.386;2022-08-18T08:20:54;21.30;;;15.88;;
21458;SDS011;10891;49.350;19.386;2022-08-18T08:23:24;27.85;;;17.35;;
21458;SDS011;10891;49.350;19.386;2022-08-18T08:25:58;21.13;;;17.27;;
21458;SDS011;10891;49.350;19.386;2022-08-18T08:28:33;22.25;;;17.13;;
21458;SDS011;10891;49.350;19.386;2022-08-18T08:31:03;21.20;;;15.95;;
21458;SDS011;10891;49.350;19.386;2022-08-18T08:33:35;21.13;;;16.15;;
21458;SDS011;10891;49.350;19.386;2022-08-18T08:36:06;22.02;;;15.68;;
21458;SDS011;10891;49.350;19.386;2022-08-18T08:38:38;19.08;;;15.60;;
21458;SDS011;10891;49.350;19.386;2022-08-18T08:41:07;20.33;;;16.25;;
21458;SDS011;10891;49.350;19.386;2022-08-18T08:43:37;18.58;;;14.88;;
21458;SDS011;10891;49.350;19.386;2022-08-18T08:46:08;21.33;;;16.35;;
21458;SDS011;10891;49.350;19.386;2022-08-18T08:48:38;19.20;;;15.40;;
21458;SDS011;10891;49.350;19.386;2022-08-18T08:51:13;18.77;;;14.90;;
21458;SDS011;10891;49.350;19.386;2022-08-18T08:53:44;22.15;;;15.43;;
21458;SDS011;10891;49.350;19.386;2022-08-18T08:56:14;18.98;;;14.25;;
21458;SDS011;10891;49.350;19.386;2022-08-18T08:58:43;18.75;;;14.02;;
21458;SDS011;10891;49.350;19.386;2022-08-18T09:01:21;25.42;;;14.10;;
21458;SDS011;10891;49.350;19.386;2022-08-18T09:03:55;18.30;;;13.70;;
21458;SDS011;10891;49.350;19.386;2022-08-18T09:06:26;22.35;;;13.93;;
21458;SDS011;10891;49.350;19.386;2022-08-18T09:14:45;18.50;;;13.88;;
21458;SDS011;10891;49.350;19.386;2022-08-18T09:17:28;18.25;;;13.45;;
21458;SDS011;10891;49.350;19.386;2022-08-18T09:20:05;20.08;;;12.88;;
21458;SDS011;10891;49.350;19.386;2022-08-18T09:22:42;17.45;;;12.93;;
21458;SDS011;10891;49.350;19.386;2022-08-18T09:28:05;16.02;;;12.15;;
21458;SDS011;10891;49.350;19.386;2022-08-18T09:30:41;16.38;;;13.25;;
21458;SDS011;10891;49.350;19.386;2022-08-18T09:33:25;16.70;;;12.57;;
21458;SDS011;10891;49.350;19.386;2022-08-18T09:36:19;17.42;;;13.38;;
21458;SDS011;10891;49.350;19.386;2022-08-18T09:38:50;18.88;;;11.60;;
21458;SDS011;10891;49.350;19.386;2022-08-18T09:41:36;17.75;;;11.77;;
21458;SDS011;10891;49.350;19.386;2022-08-18T09:44:10;16.77;;;11.90;;
21458;SDS011;10891;49.350;19.386;2022-08-18T09:49:45;18.35;;;11.23;;
21458;SDS011;10891;49.350;19.386;2022-08-18T09:54:59;13.55;;;11.23;;
21458;SDS011;10891;49.350;19.386;2022-08-18T09:57:28;14.70;;;11.10;;
21458;SDS011;10891;49.350;19.386;2022-08-18T09:59:57;15.93;;;11.45;;
21458;SDS011;10891;49.350;19.386;2022-08-18T10:05:25;15.98;;;10.98;;
21458;SDS011;10891;49.350;19.386;2022-08-18T10:07:53;17.13;;;11.20;;
21458;SDS011;10891;49.350;19.386;2022-08-18T10:10:24;12.52;;;10.57;;
21458;SDS011;10891;49.350;19.386;2022-08-18T10:12:59;14.18;;;10.70;;
21458;SDS011;10891;49.350;19.386;2022-08-18T10:15:33;12.55;;;10.00;;
21458;SDS011;10891;49.350;19.386;2022-08-18T10:18:09;14.95;;;11.07;;
21458;SDS011;10891;49.350;19.386;2022-08-18T10:20:41;12.68;;;10.80;;
21458;SDS011;10891;49.350;19.386;2022-08-18T10:23:11;13.63;;;10.85;;
21458;SDS011;10891;49.350;19.386;2022-08-18T10:26:00;13.88;;;10.20;;
21458;SDS011;10891;49.350;19.386;2022-08-18T10:31:12;11.63;;;10.25;;
21458;SDS011;10891;49.350;19.386;2022-08-18T10:34:00;13.85;;;10.15;;
21458;SDS011;10891;49.350;19.386;2022-08-18T10:39:13;11.55;;;9.77;;
21458;SDS011;10891;49.350;19.386;2022-08-18T10:44:25;14.43;;;9.60;;
21458;SDS011;10891;49.350;19.386;2022-08-18T10:46:53;12.98;;;9.43;;
21458;SDS011;10891;49.350;19.386;2022-08-18T10:49:22;11.10;;;9.00;;
21458;SDS011;10891;49.350;19.386;2022-08-18T10:51:57;11.65;;;9.52;;
21458;SDS011;10891;49.350;19.386;2022-08-18T10:54:29;16.17;;;9.20;;
21458;SDS011;10891;49.350;19.386;2022-08-18T10:56:59;17.63;;;9.15;;
21458;SDS011;10891;49.350;19.386;2022-08-18T10:59:32;9.73;;;8.40;;
21458;SDS011;10891;49.350;19.386;2022-08-18T11:02:12;15.88;;;8.88;;
21458;SDS011;10891;49.350;19.386;2022-08-18T11:04:42;14.63;;;8.27;;
21458;SDS011;10891;49.350;19.386;2022-08-18T11:07:11;11.95;;;8.40;;
21458;SDS011;10891;49.350;19.386;2022-08-18T11:09:40;11.38;;;8.30;;
21458;SDS011;10891;49.350;19.386;2022-08-18T11:12:08;10.75;;;8.50;;
21458;SDS011;10891;49.350;19.386;2022-08-18T11:14:41;11.50;;;8.23;;
21458;SDS011;10891;49.350;19.386;2022-08-18T11:17:12;11.52;;;8.63;;
21458;SDS011;10891;49.350;19.386;2022-08-18T11:19:42;12.02;;;8.48;;
21458;SDS011;10891;49.350;19.386;2022-08-18T11:22:19;11.45;;;8.50;;
21458;SDS011;10891;49.350;19.386;2022-08-18T11:24:46;16.00;;;8.38;;
21458;SDS011;10891;49.350;19.386;2022-08-18T11:27:16;12.30;;;8.30;;
21458;SDS011;10891;49.350;19.386;2022-08-18T11:29:45;11.77;;;8.60;;
21458;SDS011;10891;49.350;19.386;2022-08-18T11:32:14;13.30;;;8.98;;
21458;SDS011;10891;49.350;19.386;2022-08-18T11:34:42;14.63;;;9.07;;
21458;SDS011;10891;49.350;19.386;2022-08-18T11:37:19;20.75;;;9.40;;
21458;SDS011;10891;49.350;19.386;2022-08-18T11:39:48;12.57;;;8.38;;
21458;SDS011;10891;49.350;19.386;2022-08-18T11:42:16;10.57;;;8.70;;
21458;SDS011;10891;49.350;19.386;2022-08-18T11:44:45;11.30;;;8.32;;
21458;SDS011;10891;49.350;19.386;2022-08-18T11:47:13;10.02;;;8.25;;
21458;SDS011;10891;49.350;19.386;2022-08-18T11:49:48;12.80;;;8.40;;
21458;SDS011;10891;49.350;19.386;2022-08-18T11:52:16;13.98;;;8.95;;
21458;SDS011;10891;49.350;19.386;2022-08-18T11:54:45;10.52;;;7.82;;
21458;SDS011;10891;49.350;19.386;2022-08-18T12:00:01;14.63;;;8.13;;
21458;SDS011;10891;49.350;19.386;2022-08-18T12:02:51;14.23;;;7.93;;
21458;SDS011;10891;49.350;19.386;2022-08-18T12:05:26;8.88;;;7.53;;
21458;SDS011;10891;49.350;19.386;2022-08-18T12:07:53;11.15;;;8.25;;
21458;SDS011;10891;49.350;19.386;2022-08-18T12:10:21;9.88;;;8.23;;
21458;SDS011;10891;49.350;19.386;2022-08-18T12:12:50;11.65;;;8.88;;
21458;SDS011;10891;49.350;19.386;2022-08-18T12:15:26;16.98;;;9.43;;
21458;SDS011;10891;49.350;19.386;2022-08-18T12:17:54;11.88;;;9.38;;
21458;SDS011;10891;49.350;19.386;2022-08-18T12:20:22;14.10;;;9.63;;
21458;SDS011;10891;49.350;19.386;2022-08-18T12:22:49;13.57;;;9.35;;
21458;SDS011;10891;49.350;19.386;2022-08-18T12:25:18;13.52;;;9.52;;
21458;SDS011;10891;49.350;19.386;2022-08-18T12:27:46;11.48;;;8.73;;
21458;SDS011;10891;49.350;19.386;2022-08-18T12:30:13;15.40;;;9.50;;
21458;SDS011;10891;49.350;19.386;2022-08-18T12:32:41;10.23;;;9.13;;
21458;SDS011;10891;49.350;19.386;2022-08-18T12:35:09;17.23;;;9.55;;
21458;SDS011;10891;49.350;19.386;2022-08-18T12:37:39;14.13;;;9.68;;
21458;SDS011;10891;49.350;19.386;2022-08-18T12:40:08;12.77;;;9.15;;
21458;SDS011;10891;49.350;19.386;2022-08-18T12:42:35;16.40;;;8.85;;
21458;SDS011;10891;49.350;19.386;2022-08-18T12:45:04;9.35;;;8.32;;
21458;SDS011;10891;49.350;19.386;2022-08-18T12:47:31;13.18;;;9.50;;
21458;SDS011;10891;49.350;19.386;2022-08-18T12:50:00;12.63;;;9.07;;
21458;SDS011;10891;49.350;19.386;2022-08-18T12:52:27;13.10;;;8.40;;
21458;SDS011;10891;49.350;19.386;2022-08-18T12:54:54;15.02;;;9.20;;
21458;SDS011;10891;49.350;19.386;2022-08-18T12:57:22;15.18;;;8.25;;
21458;SDS011;10891;49.350;19.386;2022-08-18T12:59:49;13.75;;;8.23;;
21458;SDS011;10891;49.350;19.386;2022-08-18T13:02:18;8.93;;;7.85;;
21458;SDS011;10891;49.350;19.386;2022-08-18T13:04:46;14.15;;;8.50;;
21458;SDS011;10891;49.350;19.386;2022-08-18T13:07:14;12.02;;;8.55;;
21458;SDS011;10891;49.350;19.386;2022-08-18T13:09:42;13.23;;;8.32;;
21458;SDS011;10891;49.350;19.386;2022-08-18T13:12:09;10.73;;;7.60;;
21458;SDS011;10891;49.350;19.386;2022-08-18T13:14:38;9.40;;;7.35;;
21458;SDS011;10891;49.350;19.386;2022-08-18T13:17:05;9.70;;;7.85;;
21458;SDS011;10891;49.350;19.386;2022-08-18T13:19:33;12.27;;;7.60;;
21458;SDS011;10891;49.350;19.386;2022-08-18T13:22:01;10.23;;;7.05;;
21458;SDS011;10891;49.350;19.386;2022-08-18T13:24:30;8.23;;;6.97;;
21458;SDS011;10891;49.350;19.386;2022-08-18T13:26:57;11.80;;;6.95;;
21458;SDS011;10891;49.350;19.386;2022-08-18T13:29:24;12.57;;;6.60;;
21458;SDS011;10891;49.350;19.386;2022-08-18T13:31:52;9.35;;;6.97;;
21458;SDS011;10891;49.350;19.386;2022-08-18T13:34:22;15.07;;;6.35;;
21458;SDS011;10891;49.350;19.386;2022-08-18T13:36:49;12.75;;;7.60;;
21458;SDS011;10891;49.350;19.386;2022-08-18T13:39:17;12.00;;;6.88;;
21458;SDS011;10891;49.350;19.386;2022-08-18T13:41:47;7.57;;;6.57;;
21458;SDS011;10891;49.350;19.386;2022-08-18T13:44:16;14.02;;;6.65;;
21458;SDS011;10891;49.350;19.386;2022-08-18T13:46:43;8.40;;;6.65;;
21458;SDS011;10891;49.350;19.386;2022-08-18T13:49:10;12.85;;;6.05;;
21458;SDS011;10891;49.350;19.386;2022-08-18T13:51:39;9.68;;;6.28;;
21458;SDS011;10891;49.350;19.386;2022-08-18T13:54:07;9.77;;;6.97;;
21458;SDS011;10891;49.350;19.386;2022-08-18T13:56:36;12.00;;;7.13;;
21458;SDS011;10891;49.350;19.386;2022-08-18T13:59:04;6.88;;;5.97;;
21458;SDS011;10891;49.350;19.386;2022-08-18T14:01:32;17.15;;;6.47;;
21458;SDS011;10891;49.350;19.386;2022-08-18T14:03:59;10.45;;;6.20;;
21458;SDS011;10891;49.350;19.386;2022-08-18T14:06:26;10.45;;;6.45;;
21458;SDS011;10891;49.350;19.386;2022-08-18T14:08:55;11.93;;;6.10;;
21458;SDS011;10891;49.350;19.386;2022-08-18T14:11:24;8.43;;;6.43;;
21458;SDS011;10891;49.350;19.386;2022-08-18T14:13:53;13.52;;;6.57;;
21458;SDS011;10891;49.350;19.386;2022-08-18T14:16:22;11.55;;;6.60;;
21458;SDS011;10891;49.350;19.386;2022-08-18T14:18:50;10.95;;;6.25;;
21458;SDS011;10891;49.350;19.386;2022-08-18T14:21:35;9.55;;;6.45;;
21458;SDS011;10891;49.350;19.386;2022-08-18T14:24:21;7.45;;;6.40;;
21458;SDS011;10891;49.350;19.386;2022-08-18T14:27:11;9.73;;;6.40;;
21458;SDS011;10891;49.350;19.386;2022-08-18T14:29:39;14.18;;;6.68;;
21458;SDS011;10891;49.350;19.386;2022-08-18T14:32:08;9.68;;;7.13;;
21458;SDS011;10891;49.350;19.386;2022-08-18T14:34:36;9.68;;;7.43;;
21458;SDS011;10891;49.350;19.386;2022-08-18T14:37:03;10.93;;;6.63;;
21458;SDS011;10891;49.350;19.386;2022-08-18T14:39:30;10.73;;;6.70;;
21458;SDS011;10891;49.350;19.386;2022-08-18T14:41:57;15.52;;;6.43;;
21458;SDS011;10891;49.350;19.386;2022-08-18T14:44:24;8.00;;;6.13;;
21458;SDS011;10891;49.350;19.386;2022-08-18T14:46:51;9.27;;;6.97;;
21458;SDS011;10891;49.350;19.386;2022-08-18T14:49:23;6.82;;;6.10;;
21458;SDS011;10891;49.350;19.386;2022-08-18T14:51:50;8.45;;;5.78;;
21458;SDS011;10891;49.350;19.386;2022-08-18T14:54:17;10.40;;;6.53;;
21458;SDS011;10891;49.350;19.386;2022-08-18T14:56:44;9.70;;;6.63;;
21458;SDS011;10891;49.350;19.386;2022-08-18T14:59:12;13.02;;;6.50;;